Time;durP1;ratioP1;P1;durP2;ratioP2;P2;SDS_P1;SDS_P2;PMS_P1;PMS_P2;Temp;Humidity;BMP_temperature;BMP_pressure;BME280_temperature;BME280_humidity;BME280_pressure;Samples;Min_cycle;Max_cycle;Signal;HPM_P1;HPM_P2
2023/05/07 00:00:35;;;;;;;4.25;2.45;;;19.20;91.10;;;;;;10128360;28;20565;-61
2023/05/07 00:05:25;;;;;;;3.78;2.80;;;19.00;91.20;;;;;;10130076;28;20313;-51
2023/05/07 00:10:16;;;;;;;3.63;2.50;;;18.90;91.40;;;;;;10126120;28;20025;-55
2023/05/07 00:15:07;;;;;;;3.53;2.45;;;19.00;91.50;;;;;;10169926;28;20154;-50
2023/05/07 00:19:58;;;;;;;3.50;2.35;;;18.90;91.60;;;;;;10131189;28;20056;-56
2023/05/07 00:24:48;;;;;;;2.45;2.22;;;18.80;91.60;;;;;;10148838;28;20023;-58
2023/05/07 00:29:39;;;;;;;3.42;2.72;;;18.80;91.80;;;;;;10165611;28;20048;-54
2023/05/07 00:34:29;;;;;;;4.88;3.05;;;18.60;92.20;;;;;;10135054;28;20082;-63
2023/05/07 00:39:20;;;;;;;5.30;2.90;;;18.40;92.10;;;;;;10134946;28;20284;-53
2023/05/07 00:44:11;;;;;;;4.55;2.60;;;18.50;92.10;;;;;;10150653;28;20078;-51
2023/05/07 00:49:02;;;;;;;4.20;2.63;;;18.50;92.10;;;;;;10149355;28;20510;-57
2023/05/07 00:53:53;;;;;;;6.47;2.33;;;18.50;92.20;;;;;;10176762;28;20020;-62
2023/05/07 00:58:44;;;;;;;4.25;2.78;;;18.40;92.50;;;;;;10169103;28;20039;-69
2023/05/07 01:03:35;;;;;;;3.72;2.42;;;18.40;92.50;;;;;;10153681;28;20032;-61
2023/05/07 01:08:27;;;;;;;3.42;2.78;;;18.30;92.60;;;;;;10143943;28;20470;-57
2023/05/07 01:13:20;;;;;;;3.60;2.60;;;18.40;92.80;;;;;;10144206;28;20021;-52
2023/05/07 01:18:11;;;;;;;4.47;2.35;;;18.50;92.80;;;;;;10144522;28;20024;-63
2023/05/07 01:23:03;;;;;;;3.65;2.58;;;18.60;92.90;;;;;;10152346;28;20562;-67
2023/05/07 01:27:53;;;;;;;2.83;2.53;;;18.60;92.90;;;;;;10161188;28;20116;-63
2023/05/07 01:33:07;;;;;;;2.45;2.00;;;18.50;93.20;;;;;;10143386;28;20120;-62
2023/05/07 01:37:58;;;;;;;4.63;2.25;;;18.50;93.40;;;;;;10125113;28;20040;-66
2023/05/07 01:42:49;;;;;;;3.50;2.45;;;18.50;93.40;;;;;;10153077;28;20024;-66
2023/05/07 01:47:40;;;;;;;3.35;2.30;;;18.30;93.50;;;;;;10142913;28;20040;-54
2023/05/07 01:52:31;;;;;;;3.67;2.67;;;18.30;93.60;;;;;;10142163;28;20253;-59
2023/05/07 01:57:21;;;;;;;3.72;2.22;;;18.10;93.70;;;;;;10143701;28;20636;-58
2023/05/07 02:02:12;;;;;;;4.07;2.40;;;18.10;93.80;;;;;;10141609;28;20036;-66
2023/05/07 02:07:03;;;;;;;3.75;2.05;;;18.10;93.90;;;;;;10158518;28;20074;-54
2023/05/07 02:11:53;;;;;;;4.53;2.53;;;18.10;93.90;;;;;;10145459;28;20024;-63
2023/05/07 02:16:44;;;;;;;5.20;3.13;;;18.10;94.00;;;;;;10173412;28;20484;-54
2023/05/07 02:21:35;;;;;;;3.70;2.80;;;18.10;94.20;;;;;;10177760;28;20081;-61
2023/05/07 02:26:25;;;;;;;3.15;2.50;;;18.20;94.20;;;;;;10142651;28;20025;-64
2023/05/07 02:31:16;;;;;;;3.55;2.55;;;18.20;94.20;;;;;;10141201;28;20440;-67
2023/05/07 02:36:10;;;;;;;2.85;2.28;;;18.30;94.20;;;;;;10149426;28;20715;-63
2023/05/07 02:41:01;;;;;;;4.00;2.40;;;18.20;94.20;;;;;;10141341;28;20047;-68
2023/05/07 02:46:02;;;;;;;4.35;2.50;;;18.00;94.40;;;;;;10152687;28;20474;-61
2023/05/07 02:50:53;;;;;;;3.05;2.22;;;18.10;94.50;;;;;;10167553;28;20052;-69
2023/05/07 02:55:44;;;;;;;5.43;2.55;;;18.00;94.50;;;;;;10140468;28;20040;-65
2023/05/07 03:00:34;;;;;;;16.27;3.10;;;17.90;94.50;;;;;;10128737;28;20299;-68
2023/05/07 03:05:25;;;;;;;2.70;1.95;;;18.10;94.60;;;;;;10133592;28;20032;-65
2023/05/07 03:10:16;;;;;;;2.47;2.03;;;18.00;94.60;;;;;;10126084;28;20258;-67
2023/05/07 03:15:07;;;;;;;4.70;2.15;;;17.90;94.90;;;;;;10164614;28;20110;-60
2023/05/07 03:19:58;;;;;;;3.88;2.97;;;17.80;94.90;;;;;;10149115;28;20036;-68
2023/05/07 03:24:49;;;;;;;3.30;2.58;;;17.80;95.00;;;;;;10135184;28;20024;-66
2023/05/07 03:29:39;;;;;;;4.30;2.20;;;17.70;95.10;;;;;;10141888;28;20379;-67
2023/05/07 03:34:30;;;;;;;3.42;2.47;;;17.60;95.20;;;;;;10139667;28;20052;-70
2023/05/07 03:39:20;;;;;;;5.75;2.80;;;17.30;95.50;;;;;;10138736;28;20410;-69
2023/05/07 03:44:11;;;;;;;3.80;2.92;;;17.20;95.70;;;;;;10138499;28;20102;-59
2023/05/07 03:49:02;;;;;;;4.50;2.13;;;17.10;95.70;;;;;;10147299;28;20057;-53
2023/05/07 03:53:52;;;;;;;3.00;1.90;;;17.20;95.90;;;;;;10138781;28;20492;-59
2023/05/07 03:58:43;;;;;;;2.95;2.17;;;17.50;95.60;;;;;;10138611;28;20390;-53
2023/05/07 04:03:34;;;;;;;4.07;2.65;;;17.50;95.80;;;;;;10151303;28;20025;-54
2023/05/07 04:08:25;;;;;;;3.50;2.22;;;17.50;95.80;;;;;;10121199;28;20029;-56
2023/05/07 04:13:15;;;;;;;4.10;2.80;;;17.50;95.90;;;;;;10139514;28;20051;-67
2023/05/07 04:18:06;;;;;;;3.40;2.47;;;17.30;96.10;;;;;;10149948;28;20574;-53
2023/05/07 04:22:56;;;;;;;3.00;2.10;;;17.40;96.10;;;;;;10142469;28;20112;-56
2023/05/07 04:27:48;;;;;;;5.82;2.60;;;17.30;96.20;;;;;;10148991;28;20024;-52
2023/05/07 04:32:39;;;;;;;4.10;2.65;;;17.20;96.40;;;;;;10150032;28;20037;-56
2023/05/07 04:37:32;;;;;;;5.00;2.63;;;17.10;96.50;;;;;;10145201;28;20521;-54
2023/05/07 04:42:23;;;;;;;3.45;2.50;;;16.90;96.80;;;;;;10134306;28;20113;-58
2023/05/07 04:47:14;;;;;;;7.40;2.55;;;17.00;96.90;;;;;;10145226;28;20029;-61
2023/05/07 04:52:05;;;;;;;4.72;2.53;;;17.10;96.80;;;;;;10149461;28;20086;-66
2023/05/07 04:56:56;;;;;;;3.40;2.50;;;17.00;96.90;;;;;;10172014;28;20029;-61
2023/05/07 05:01:47;;;;;;;5.10;2.80;;;16.90;97.10;;;;;;10145011;28;20024;-57
2023/05/07 05:06:37;;;;;;;6.00;3.22;;;17.00;97.20;;;;;;10143177;28;20025;-54
2023/05/07 05:11:28;;;;;;;5.53;3.05;;;17.00;97.30;;;;;;10150287;28;20040;-55
2023/05/07 05:16:19;;;;;;;4.57;2.97;;;17.00;97.60;;;;;;10165715;28;20367;-61
2023/05/07 05:21:09;;;;;;;4.57;2.78;;;17.20;97.40;;;;;;10170066;28;20128;-61
2023/05/07 05:26:00;;;;;;;5.80;2.65;;;17.10;97.70;;;;;;10156378;28;20152;-60
2023/05/07 05:30:50;;;;;;;6.80;2.75;;;17.30;97.80;;;;;;10143552;28;20036;-54
2023/05/07 05:35:41;;;;;;;5.07;3.35;;;17.40;97.70;;;;;;10143572;28;20494;-63
2023/05/07 05:40:33;;;;;;;6.43;3.17;;;17.40;97.80;;;;;;10145394;28;20452;-63
2023/05/07 05:45:23;;;;;;;6.03;3.15;;;17.40;98.00;;;;;;10142871;28;20025;-66
2023/05/07 05:50:14;;;;;;;4.00;3.10;;;17.40;98.00;;;;;;10162440;28;20498;-54
2023/05/07 05:55:06;;;;;;;4.53;3.63;;;17.20;98.10;;;;;;10159531;28;20523;-55
2023/05/07 05:59:57;;;;;;;5.22;3.15;;;17.60;98.00;;;;;;10142617;28;20028;-57
2023/05/07 06:04:48;;;;;;;4.97;3.28;;;17.80;97.80;;;;;;10120227;28;20051;-58
2023/05/07 06:09:38;;;;;;;3.88;3.00;;;17.70;97.80;;;;;;10134814;28;20044;-59
2023/05/07 06:14:29;;;;;;;4.60;3.00;;;17.70;98.10;;;;;;10141790;28;20099;-61
2023/05/07 06:19:23;;;;;;;8.35;4.13;;;17.90;98.00;;;;;;10141664;28;20130;-65
2023/05/07 06:24:13;;;;;;;4.82;3.65;;;17.80;98.00;;;;;;10145105;28;20024;-55
2023/05/07 06:29:04;;;;;;;4.63;3.38;;;17.80;98.30;;;;;;10174428;28;20078;-63
2023/05/07 06:33:55;;;;;;;4.47;3.40;;;18.00;98.00;;;;;;10157056;28;20028;-70
2023/05/07 06:38:45;;;;;;;5.13;3.15;;;18.10;98.00;;;;;;10146906;28;20036;-53
2023/05/07 06:43:36;;;;;;;7.05;3.60;;;18.00;98.30;;;;;;10140294;28;20436;-60
2023/05/07 06:48:27;;;;;;;4.93;3.40;;;17.90;98.40;;;;;;10143477;28;20020;-55
2023/05/07 06:53:17;;;;;;;4.30;3.13;;;18.00;98.50;;;;;;10147776;28;20494;-68
2023/05/07 06:58:08;;;;;;;5.85;3.38;;;18.30;98.30;;;;;;10140480;28;20085;-59
2023/05/07 07:03:00;;;;;;;4.18;3.35;;;18.50;98.30;;;;;;10154183;28;20081;-63
2023/05/07 07:07:52;;;;;;;4.45;3.83;;;18.70;98.20;;;;;;10139484;28;20020;-64
2023/05/07 07:12:43;;;;;;;4.57;3.80;;;18.60;98.30;;;;;;10136367;28;20086;-57
2023/05/07 07:17:35;;;;;;;5.25;3.38;;;18.60;98.30;;;;;;10166772;28;20032;-56
2023/05/07 07:22:25;;;;;;;5.22;3.88;;;18.80;98.30;;;;;;10144786;28;20119;-59
2023/05/07 07:27:16;;;;;;;6.35;3.70;;;18.90;98.20;;;;;;10139191;28;20116;-70
2023/05/07 07:32:06;;;;;;;4.53;3.70;;;18.80;98.40;;;;;;10144974;28;20483;-65
2023/05/07 07:36:57;;;;;;;6.63;3.75;;;18.90;98.50;;;;;;10176101;28;20036;-66
2023/05/07 07:41:48;;;;;;;6.60;4.47;;;19.10;98.40;;;;;;10153645;28;20093;-66
2023/05/07 07:46:38;;;;;;;5.88;4.57;;;19.50;98.30;;;;;;10140286;28;20493;-59
2023/05/07 07:51:30;;;;;;;4.82;3.80;;;19.70;98.20;;;;;;10148516;28;20069;-55
2023/05/07 07:56:21;;;;;;;9.15;4.90;;;19.90;98.40;;;;;;10167998;28;20116;-54
2023/05/07 08:01:12;;;;;;;6.05;4.07;;;20.20;98.20;;;;;;10158008;28;20024;-57
2023/05/07 08:06:03;;;;;;;8.88;4.38;;;20.50;98.30;;;;;;10134778;28;20043;-60
2023/05/07 08:10:54;;;;;;;5.70;3.85;;;20.90;98.10;;;;;;10135528;28;20039;-58
2023/05/07 08:15:44;;;;;;;8.60;4.38;;;20.80;98.10;;;;;;10152991;28;20047;-54
2023/05/07 08:20:39;;;;;;;5.88;4.10;;;20.40;98.40;;;;;;10157197;28;20063;-54
2023/05/07 08:25:29;;;;;;;5.05;4.25;;;20.60;98.30;;;;;;10137923;28;20032;-54
2023/05/07 08:30:20;;;;;;;4.55;3.42;;;20.70;98.00;;;;;;10139366;28;20071;-54
2023/05/07 08:35:11;;;;;;;4.72;3.92;;;20.70;98.10;;;;;;10137385;28;20461;-51
2023/05/07 08:40:01;;;;;;;5.28;3.70;;;20.90;97.80;;;;;;10153828;28;20033;-55
2023/05/07 08:44:57;;;;;;;5.72;3.85;;;20.90;97.80;;;;;;10149542;28;20501;-54
2023/05/07 08:49:48;;;;;;;5.63;3.15;;;21.10;97.60;;;;;;10136552;28;20064;-65
2023/05/07 08:54:39;;;;;;;6.32;3.90;;;21.40;97.50;;;;;;10139392;28;20035;-53
2023/05/07 08:59:30;;;;;;;4.97;4.07;;;21.40;97.30;;;;;;10143744;28;20486;-58
2023/05/07 09:04:20;;;;;;;7.32;3.65;;;21.20;97.40;;;;;;10167245;28;20123;-53
2023/05/07 09:09:17;;;;;;;6.15;3.72;;;21.50;97.20;;;;;;10169123;28;20079;-58
2023/05/07 09:14:07;;;;;;;5.05;3.50;;;21.40;97.10;;;;;;10144282;28;20036;-58
2023/05/07 09:19:00;;;;;;;6.03;4.60;;;21.70;97.10;;;;;;10135366;28;20032;-57
2023/05/07 09:23:52;;;;;;;5.43;3.78;;;22.00;96.90;;;;;;10162020;28;20012;-63
2023/05/07 09:28:43;;;;;;;4.00;3.28;;;22.00;96.80;;;;;;10144239;28;20127;-60
2023/05/07 09:33:34;;;;;;;4.25;3.50;;;22.00;96.80;;;;;;10143173;28;20127;-69
2023/05/07 09:38:26;;;;;;;5.20;3.35;;;22.20;96.50;;;;;;10153805;28;20035;-52
2023/05/07 09:43:17;;;;;;;5.97;3.90;;;22.10;96.40;;;;;;10142999;28;20040;-57
2023/05/07 09:48:08;;;;;;;6.15;3.83;;;22.20;96.30;;;;;;10142218;28;20036;-68
2023/05/07 09:53:00;;;;;;;4.93;3.72;;;22.50;96.10;;;;;;10144878;28;20510;-55
2023/05/07 09:57:52;;;;;;;5.32;4.13;;;22.20;96.10;;;;;;10153767;28;20032;-52
2023/05/07 10:02:48;;;;;;;10.02;4.30;;;21.90;96.30;;;;;;10175424;28;20387;-64
2023/05/07 10:07:39;;;;;;;5.28;3.92;;;21.90;96.20;;;;;;10129258;28;20245;-62
2023/05/07 10:12:37;;;;;;;4.50;3.47;;;22.10;96.00;;;;;;10141470;28;20040;-65
2023/05/07 10:17:28;;;;;;;6.80;3.55;;;22.00;96.00;;;;;;10140418;28;20101;-63
2023/05/07 10:22:20;;;;;;;5.57;3.05;;;21.90;96.00;;;;;;10155824;28;20115;-54
2023/05/07 10:27:14;;;;;;;3.80;2.72;;;21.90;95.80;;;;;;10172232;28;20492;-54
2023/05/07 10:32:28;;;;;;;4.70;2.35;;;22.00;95.60;;;;;;10145003;28;20036;-50
2023/05/07 10:37:19;;;;;;;5.45;2.63;;;22.10;95.40;;;;;;10141515;28;20493;-55
2023/05/07 10:42:12;;;;;;;5.88;2.85;;;22.20;95.30;;;;;;10140486;28;20040;-52
2023/05/07 10:47:13;;;;;;;4.47;3.50;;;22.30;95.00;;;;;;10148430;28;20509;-56
2023/05/07 10:52:17;;;;;;;4.53;3.35;;;22.50;94.80;;;;;;10134906;28;20518;-56
2023/05/07 10:57:35;;;;;;;5.40;3.70;;;22.70;94.70;;;;;;10139526;28;20055;-55
2023/05/07 11:03:00;;;;;;;6.50;3.47;;;22.70;94.60;;;;;;10147947;28;20036;-53
2023/05/07 11:07:55;;;;;;;7.40;3.80;;;22.60;94.70;;;;;;10139988;28;20040;-54
2023/05/07 11:12:46;;;;;;;6.30;3.85;;;22.80;94.70;;;;;;10127601;28;20415;-54
2023/05/07 11:17:54;;;;;;;4.07;3.67;;;23.00;94.70;;;;;;10126332;28;20399;-56
2023/05/07 11:22:45;;;;;;;4.95;3.03;;;23.20;94.60;;;;;;10123109;28;20108;-59
2023/05/07 11:27:36;;;;;;;4.57;3.25;;;23.50;94.70;;;;;;10151742;28;20529;-53
2023/05/07 11:32:32;;;;;;;4.82;3.55;;;23.80;94.30;;;;;;10133670;28;20046;-54
2023/05/07 11:37:24;;;;;;;3.80;2.85;;;23.70;94.20;;;;;;10138662;28;20371;-66
2023/05/07 11:42:31;;;;;;;3.83;3.05;;;23.60;94.20;;;;;;10138378;28;20036;-62
2023/05/07 11:47:22;;;;;;;3.33;2.08;;;23.40;94.10;;;;;;10147676;28;20024;-52
2023/05/07 11:52:13;;;;;;;4.25;3.00;;;23.30;94.20;;;;;;10137682;28;20048;-54
2023/05/07 11:57:04;;;;;;;7.40;3.92;;;23.10;94.00;;;;;;10119925;28;20028;-58
2023/05/07 12:01:59;;;;;;;3.88;3.13;;;23.20;94.00;;;;;;10138468;28;20042;-55
2023/05/07 12:06:53;;;;;;;5.05;2.92;;;23.40;93.80;;;;;;10137354;28;20059;-65
2023/05/07 12:11:46;;;;;;;5.95;3.22;;;23.50;93.80;;;;;;10135673;28;20052;-54
2023/05/07 12:16:39;;;;;;;4.47;2.90;;;23.60;94.00;;;;;;10122661;28;20120;-52
2023/05/07 12:21:30;;;;;;;4.05;2.78;;;23.00;94.00;;;;;;10157183;28;20039;-55
2023/05/07 12:26:21;;;;;;;6.32;3.17;;;22.70;94.20;;;;;;10135983;28;20029;-62
2023/05/07 12:31:14;;;;;;;5.25;2.90;;;22.70;94.20;;;;;;10134194;28;20055;-53
2023/05/07 12:36:07;;;;;;;6.00;3.17;;;22.50;94.20;;;;;;10137702;28;20031;-52
2023/05/07 12:40:58;;;;;;;6.47;2.72;;;22.40;94.30;;;;;;10143261;28;20124;-55
2023/05/07 12:45:50;;;;;;;3.60;2.35;;;22.40;94.30;;;;;;10142787;28;20230;-64
2023/05/07 12:50:41;;;;;;;3.55;2.60;;;22.30;94.30;;;;;;10124039;28;20052;-52
2023/05/07 12:55:39;;;;;;;6.25;3.00;;;22.30;94.30;;;;;;10146041;28;20017;-55
2023/05/07 13:00:35;;;;;;;3.33;2.50;;;22.40;94.30;;;;;;10141564;28;20402;-55
2023/05/07 13:05:25;;;;;;;3.33;2.90;;;22.40;94.50;;;;;;10142333;28;20020;-51
2023/05/07 13:10:17;;;;;;;4.10;3.10;;;22.50;94.60;;;;;;10123263;28;20516;-55
2023/05/07 13:15:08;;;;;;;3.63;2.53;;;22.40;94.80;;;;;;10123565;28;20031;-57
2023/05/07 13:19:58;;;;;;;4.22;2.78;;;22.20;95.20;;;;;;10123404;28;20494;-51
2023/05/07 13:24:50;;;;;;;4.47;3.33;;;22.10;95.50;;;;;;10144223;28;20051;-60
2023/05/07 13:29:40;;;;;;;7.55;4.10;;;22.20;95.70;;;;;;10122215;28;20486;-55
2023/05/07 13:34:31;;;;;;;3.95;2.90;;;22.40;95.80;;;;;;10141211;28;20138;-52
2023/05/07 13:39:21;;;;;;;3.78;2.20;;;22.30;96.30;;;;;;10142790;28;20350;-55
2023/05/07 13:44:12;;;;;;;4.55;3.00;;;22.10;96.70;;;;;;10141417;28;20112;-52
2023/05/07 13:49:03;;;;;;;2.55;2.15;;;21.90;97.10;;;;;;10119340;28;20060;-57
2023/05/07 13:53:54;;;;;;;5.07;2.63;;;21.90;97.30;;;;;;10145552;28;20020;-53
2023/05/07 13:58:44;;;;;;;2.60;2.08;;;22.30;97.50;;;;;;10128128;28;20567;-57
2023/05/07 14:03:37;;;;;;;3.25;2.20;;;22.50;97.50;;;;;;10140061;28;20035;-55
2023/05/07 14:08:28;;;;;;;2.30;1.73;;;22.60;97.60;;;;;;10130392;28;20028;-53
2023/05/07 14:13:18;;;;;;;4.22;2.33;;;22.40;97.70;;;;;;10138659;28;20025;-52
2023/05/07 14:18:09;;;;;;;3.97;1.90;;;22.20;98.00;;;;;;10139727;28;20032;-63
2023/05/07 14:23:00;;;;;;;2.65;1.70;;;22.00;98.00;;;;;;10144713;28;20024;-57
2023/05/07 14:27:50;;;;;;;3.53;1.95;;;21.90;98.00;;;;;;10139229;28;20310;-68
2023/05/07 14:32:41;;;;;;;2.80;1.70;;;22.20;97.90;;;;;;10138355;28;20032;-54
2023/05/07 14:37:31;;;;;;;1.52;1.42;;;22.20;97.70;;;;;;10138733;28;20041;-59
2023/05/07 14:42:22;;;;;;;1.67;1.48;;;22.40;97.70;;;;;;10138536;28;20291;-51
2023/05/07 14:47:13;;;;;;;2.28;1.70;;;22.20;97.60;;;;;;10121879;28;20039;-53
2023/05/07 14:52:05;;;;;;;1.58;1.48;;;22.00;97.60;;;;;;10137200;28;20052;-57
2023/05/07 14:56:56;;;;;;;2.00;1.48;;;22.00;97.40;;;;;;10152357;28;20393;-55
2023/05/07 15:01:47;;;;;;;1.85;1.30;;;22.10;97.30;;;;;;10140907;28;20111;-53
2023/05/07 15:06:38;;;;;;;2.55;1.70;;;22.20;97.00;;;;;;10138421;28;20098;-68
2023/05/07 15:11:29;;;;;;;1.55;1.30;;;22.60;96.80;;;;;;10137705;28;20099;-56
2023/05/07 15:16:20;;;;;;;4.82;3.35;;;22.80;96.70;;;;;;10124248;28;20481;-65
2023/05/07 15:21:11;;;;;;;2.25;1.90;;;23.10;96.50;;;;;;10136093;28;20446;-56
2023/05/07 15:26:01;;;;;;;2.75;2.08;;;23.40;96.40;;;;;;10139391;28;20072;-57
2023/05/07 15:30:52;;;;;;;2.42;1.92;;;24.20;96.00;;;;;;10145085;28;20032;-61
2023/05/07 15:35:43;;;;;;;3.50;2.00;;;24.50;95.80;;;;;;10136548;28;20029;-55
2023/05/07 15:40:37;;;;;;;2.25;1.70;;;24.30;95.90;;;;;;10135569;28;20029;-59
2023/05/07 15:45:28;;;;;;;3.80;2.08;;;24.30;95.90;;;;;;10154599;28;20028;-59
2023/05/07 15:50:19;;;;;;;2.35;1.92;;;24.30;95.60;;;;;;10135744;28;20037;-60
2023/05/07 15:55:09;;;;;;;2.25;1.63;;;23.90;95.90;;;;;;10140375;28;20032;-60
2023/05/07 16:00:00;;;;;;;3.30;2.20;;;23.90;95.70;;;;;;10133867;28;20029;-68
2023/05/07 16:04:51;;;;;;;2.15;1.73;;;23.90;95.80;;;;;;10131914;28;20029;-56
2023/05/07 16:09:41;;;;;;;4.70;2.40;;;24.00;95.60;;;;;;10140767;28;20533;-57
2023/05/07 16:14:32;;;;;;;2.65;1.80;;;24.70;95.10;;;;;;10141498;28;20035;-54
2023/05/07 16:19:23;;;;;;;4.10;1.88;;;25.40;94.50;;;;;;10135518;28;20082;-62
2023/05/07 16:24:14;;;;;;;1.98;1.55;;;25.80;94.10;;;;;;10138267;28;20401;-60
2023/05/07 16:29:05;;;;;;;2.95;1.80;;;25.10;94.20;;;;;;10137807;28;20044;-57
2023/05/07 16:33:56;;;;;;;3.53;1.63;;;24.50;94.70;;;;;;10134846;28;20035;-55
2023/05/07 16:38:47;;;;;;;3.00;1.25;;;24.10;94.60;;;;;;10135536;28;20028;-57
2023/05/07 16:43:37;;;;;;;1.90;1.40;;;23.70;94.60;;;;;;10141959;28;20595;-57
2023/05/07 16:48:28;;;;;;;2.53;2.33;;;23.50;94.80;;;;;;10116468;28;20075;-55
2023/05/07 16:53:19;;;;;;;2.83;1.80;;;23.90;94.40;;;;;;10138081;28;20308;-50
2023/05/07 16:58:11;;;;;;;4.15;1.48;;;23.80;94.70;;;;;;10134860;28;20032;-59
2023/05/07 17:03:02;;;;;;;1.90;1.30;;;24.10;94.40;;;;;;10133901;28;20035;-54
2023/05/07 17:07:54;;;;;;;3.72;1.55;;;24.50;93.70;;;;;;10164309;28;20103;-57
2023/05/07 17:12:45;;;;;;;2.53;1.70;;;23.20;94.70;;;;;;10139110;28;20045;-55
2023/05/07 17:17:35;;;;;;;2.38;1.80;;;22.50;95.30;;;;;;10144836;28;20029;-59
2023/05/07 17:22:26;;;;;;;1.80;1.30;;;22.30;95.50;;;;;;10143427;28;20020;-55
2023/05/07 17:27:17;;;;;;;1.55;1.40;;;22.10;95.60;;;;;;10141231;28;20029;-56
2023/05/07 17:32:07;;;;;;;1.73;1.33;;;22.20;95.40;;;;;;10140600;28;20032;-57
2023/05/07 17:36:58;;;;;;;5.00;1.98;;;22.00;95.30;;;;;;10151035;28;20025;-59
2023/05/07 17:41:49;;;;;;;4.97;2.13;;;21.80;95.30;;;;;;10140606;28;20113;-65
2023/05/07 17:46:40;;;;;;;2.78;1.80;;;21.70;95.40;;;;;;10141146;28;20064;-61
2023/05/07 17:51:31;;;;;;;2.30;1.67;;;21.70;95.40;;;;;;10143678;28;20091;-65
2023/05/07 17:56:21;;;;;;;3.35;1.67;;;21.70;95.40;;;;;;10136925;28;20490;-57
2023/05/07 18:01:12;;;;;;;1.77;1.48;;;21.50;95.40;;;;;;10140851;28;20513;-53
2023/05/07 18:06:03;;;;;;;2.42;1.48;;;21.50;95.40;;;;;;10142615;28;20036;-52
2023/05/07 18:10:53;;;;;;;3.15;1.88;;;21.50;95.50;;;;;;10121182;28;20058;-54
2023/05/07 18:15:45;;;;;;;2.42;1.42;;;21.40;95.50;;;;;;10139883;28;20028;-55
2023/05/07 18:20:35;;;;;;;3.08;1.38;;;21.50;95.50;;;;;;10151443;28;20020;-53
2023/05/07 18:25:26;;;;;;;5.47;2.28;;;21.40;95.50;;;;;;10142027;28;20040;-53
2023/05/07 18:30:17;;;;;;;3.42;1.50;;;21.30;95.60;;;;;;10138630;28;20048;-58
2023/05/07 18:35:08;;;;;;;2.47;1.27;;;21.20;95.70;;;;;;10141016;28;20079;-61
2023/05/07 18:40:02;;;;;;;3.13;1.85;;;21.30;95.60;;;;;;10138185;28;20041;-54
2023/05/07 18:44:53;;;;;;;2.38;1.65;;;21.20;95.80;;;;;;10139025;28;20028;-54
2023/05/07 18:49:44;;;;;;;4.30;1.70;;;21.00;96.00;;;;;;10137870;28;20284;-57
2023/05/07 18:54:35;;;;;;;2.47;1.48;;;20.90;96.00;;;;;;10137949;28;20201;-57
2023/05/07 18:59:25;;;;;;;2.50;1.73;;;21.00;95.90;;;;;;10138026;28;20410;-57
2023/05/07 19:04:16;;;;;;;2.97;1.67;;;21.00;96.10;;;;;;10144324;28;20031;-56
2023/05/07 19:09:07;;;;;;;2.97;1.50;;;21.00;96.10;;;;;;10143368;28;20080;-55
2023/05/07 19:13:58;;;;;;;1.83;1.30;;;21.00;96.30;;;;;;10123101;28;20425;-54
2023/05/07 19:18:49;;;;;;;3.10;1.77;;;20.90;96.40;;;;;;10114246;28;20075;-54
2023/05/07 19:23:43;;;;;;;3.65;2.50;;;21.00;96.40;;;;;;10126168;28;20064;-55
2023/05/07 19:28:33;;;;;;;3.97;2.80;;;21.00;96.50;;;;;;10110999;28;20036;-62
2023/05/07 19:33:24;;;;;;;3.95;2.17;;;21.00;96.50;;;;;;10134065;28;20090;-60
2023/05/07 19:38:15;;;;;;;2.63;2.10;;;21.00;96.50;;;;;;10136650;28;20470;-53
2023/05/07 19:43:05;;;;;;;3.80;1.45;;;20.90;96.60;;;;;;10145578;28;20105;-55
2023/05/07 19:47:56;;;;;;;3.28;1.40;;;20.90;96.50;;;;;;10137463;28;20111;-60
2023/05/07 19:52:47;;;;;;;2.03;1.70;;;20.80;96.70;;;;;;10139473;28;20048;-54
2023/05/07 19:57:38;;;;;;;4.57;1.85;;;20.80;96.80;;;;;;10138531;28;20131;-56
2023/05/07 20:02:28;;;;;;;3.08;2.08;;;20.70;97.00;;;;;;10130795;28;20025;-60
2023/05/07 20:07:19;;;;;;;2.50;1.73;;;20.50;97.40;;;;;;10137791;28;20032;-64
2023/05/07 20:12:10;;;;;;;2.60;1.60;;;20.20;97.80;;;;;;10141380;28;20075;-57
2023/05/07 20:17:00;;;;;;;3.30;1.83;;;20.10;98.00;;;;;;10141400;28;20115;-60
2023/05/07 20:21:51;;;;;;;2.78;1.85;;;20.00;98.30;;;;;;10137457;28;20036;-51
2023/05/07 20:26:42;;;;;;;4.95;2.95;;;20.00;98.40;;;;;;10119601;28;20032;-61
2023/05/07 20:31:34;;;;;;;6.93;3.03;;;20.00;98.40;;;;;;10136157;28;20548;-58
2023/05/07 20:36:25;;;;;;;4.93;2.80;;;20.00;98.60;;;;;;10135917;28;20029;-55
2023/05/07 20:41:16;;;;;;;8.65;4.03;;;20.10;98.60;;;;;;10137321;28;20473;-67
2023/05/07 20:46:07;;;;;;;3.90;2.55;;;19.90;98.80;;;;;;10136536;28;20032;-59
2023/05/07 20:50:59;;;;;;;3.95;2.67;;;19.70;99.00;;;;;;10118574;28;20048;-58
2023/05/07 20:55:50;;;;;;;3.53;2.20;;;19.70;99.20;;;;;;10143307;28;20439;-55
2023/05/07 21:00:41;;;;;;;5.68;2.63;;;19.80;99.30;;;;;;10144983;28;20108;-60
2023/05/07 21:05:32;;;;;;;3.60;2.05;;;19.70;99.30;;;;;;10127181;28;20035;-58
2023/05/07 21:10:23;;;;;;;7.15;3.00;;;19.70;99.40;;;;;;10154517;28;20093;-49
2023/05/07 21:15:13;;;;;;;4.47;2.58;;;19.60;99.70;;;;;;10143977;28;20029;-56
2023/05/07 21:20:05;;;;;;;3.13;2.30;;;19.60;99.80;;;;;;10143624;28;20040;-56
2023/05/07 21:24:55;;;;;;;2.85;1.70;;;19.70;99.80;;;;;;10148398;28;20027;-53
2023/05/07 21:29:46;;;;;;;8.95;4.45;;;19.80;99.90;;;;;;10141425;28;20036;-55
2023/05/07 21:34:36;;;;;;;4.28;3.15;;;19.70;99.90;;;;;;10145832;28;20083;-58
2023/05/07 21:39:27;;;;;;;5.40;2.38;;;19.60;99.90;;;;;;10141700;28;20463;-73
2023/05/07 21:44:18;;;;;;;3.47;2.40;;;19.30;99.90;;;;;;10144639;28;20103;-53
2023/05/07 21:49:08;;;;;;;2.58;2.00;;;19.20;99.90;;;;;;10144559;28;20044;-55
2023/05/07 21:53:59;;;;;;;3.75;2.10;;;19.10;99.90;;;;;;10141058;28;20051;-56
2023/05/07 21:58:50;;;;;;;5.07;2.67;;;19.30;99.90;;;;;;10140387;28;20029;-62
2023/05/07 22:03:40;;;;;;;4.10;2.97;;;19.40;99.90;;;;;;10145910;28;20025;-68
2023/05/07 22:08:31;;;;;;;3.47;1.95;;;19.30;99.90;;;;;;10139110;28;20029;-71
2023/05/07 22:13:22;;;;;;;4.40;2.20;;;19.20;99.90;;;;;;10138914;28;20445;-66
2023/05/07 22:18:12;;;;;;;6.80;2.70;;;19.30;99.90;;;;;;10139188;28;20438;-53
2023/05/07 22:23:03;;;;;;;4.43;2.50;;;19.10;99.90;;;;;;10142945;28;20399;-55
2023/05/07 22:27:53;;;;;;;3.63;1.98;;;19.10;99.90;;;;;;10139252;28;20136;-53
2023/05/07 22:32:44;;;;;;;3.90;2.15;;;19.30;99.90;;;;;;10145340;28;20117;-54
2023/05/07 22:37:35;;;;;;;3.25;2.20;;;19.30;99.90;;;;;;10121077;28;20466;-55
2023/05/07 22:42:26;;;;;;;3.47;2.25;;;19.20;99.90;;;;;;10137848;28;20033;-53
2023/05/07 22:47:16;;;;;;;3.15;2.30;;;19.20;99.90;;;;;;10130061;28;20135;-67
2023/05/07 22:52:07;;;;;;;3.50;1.98;;;19.00;99.90;;;;;;10137976;28;20151;-55
2023/05/07 22:56:58;;;;;;;3.55;2.30;;;19.00;99.90;;;;;;10138849;28;20032;-57
2023/05/07 23:01:49;;;;;;;2.67;2.15;;;19.00;99.90;;;;;;10144595;28;20021;-61
2023/05/07 23:06:40;;;;;;;3.17;2.08;;;19.10;99.90;;;;;;10138448;28;20029;-62
2023/05/07 23:11:31;;;;;;;5.88;2.60;;;18.90;99.90;;;;;;10138030;28;20127;-66
2023/05/07 23:16:21;;;;;;;2.20;1.83;;;18.90;99.90;;;;;;10146840;28;20115;-58
2023/05/07 23:21:12;;;;;;;3.78;2.50;;;18.90;99.90;;;;;;10102180;28;20039;-54
2023/05/07 23:26:03;;;;;;;3.42;2.53;;;18.90;99.90;;;;;;10139371;28;20039;-67
2023/05/07 23:30:54;;;;;;;4.68;2.33;;;19.00;99.90;;;;;;10138442;28;20036;-62
2023/05/07 23:35:44;;;;;;;3.78;2.28;;;19.00;99.90;;;;;;10118670;28;20029;-53
2023/05/07 23:40:35;;;;;;;3.95;2.55;;;19.00;99.90;;;;;;10136518;28;20033;-57
2023/05/07 23:45:26;;;;;;;4.13;1.98;;;19.00;99.90;;;;;;10118986;28;20035;-50
2023/05/07 23:50:16;;;;;;;2.95;2.40;;;19.00;99.90;;;;;;10135925;28;20083;-58
2023/05/07 23:55:08;;;;;;;3.25;2.13;;;18.90;99.90;;;;;;10138733;28;20043;-52
